createdAt,value
2023-01-08T00:00:07.533Z,2.56
2023-01-08T00:01:35.013Z,2.56
2023-01-08T00:02:36.978Z,2.54
2023-01-08T00:03:40.701Z,2.53
2023-01-08T00:04:43.237Z,2.53
2023-01-08T00:05:45.397Z,2.52
2023-01-08T00:06:48.039Z,2.53
2023-01-08T00:07:49.928Z,2.52
2023-01-08T00:08:52.065Z,2.51
2023-01-08T00:09:55.101Z,2.48
2023-01-08T00:10:58.470Z,2.46
2023-01-08T00:12:00.616Z,2.44
2023-01-08T00:13:02.850Z,2.42
2023-01-08T00:14:05.279Z,2.42
2023-01-08T00:15:07.772Z,2.42
2023-01-08T00:16:12.762Z,2.42
2023-01-08T00:17:19.960Z,2.41
2023-01-08T00:18:23.783Z,2.40
2023-01-08T00:19:25.967Z,2.39
2023-01-08T00:20:29.129Z,2.39
2023-01-08T00:21:31.116Z,2.36
2023-01-08T00:22:33.427Z,2.34
2023-01-08T00:23:36.819Z,2.34
2023-01-08T00:24:38.931Z,2.31
2023-01-08T00:25:41.526Z,2.30
2023-01-08T00:26:43.564Z,2.29
2023-01-08T00:27:46.685Z,2.29
2023-01-08T00:28:48.759Z,2.29
2023-01-08T00:29:50.811Z,2.30
2023-01-08T00:30:53.181Z,2.29
2023-01-08T00:31:55.089Z,2.28
2023-01-08T00:32:57.115Z,2.26
2023-01-08T00:33:59.027Z,2.24
2023-01-08T00:35:01.926Z,2.22
2023-01-08T00:36:12.366Z,2.21
2023-01-08T00:37:19.065Z,2.20
2023-01-08T00:38:24.958Z,2.18
2023-01-08T00:39:27.003Z,2.17
2023-01-08T00:40:28.879Z,2.16
2023-01-08T00:41:30.860Z,2.14
2023-01-08T00:42:32.842Z,2.13
2023-01-08T00:43:35.516Z,2.13
2023-01-08T00:44:37.388Z,2.12
2023-01-08T00:45:39.733Z,2.11
2023-01-08T00:46:41.889Z,2.09
2023-01-08T00:47:44.031Z,2.10
2023-01-08T00:48:45.925Z,2.08
2023-01-08T00:49:48.038Z,2.06
2023-01-08T00:50:51.159Z,2.04
2023-01-08T00:51:53.093Z,2.03
2023-01-08T00:52:55.200Z,2.03
2023-01-08T00:53:57.400Z,2.03
2023-01-08T00:54:59.337Z,2.02
2023-01-08T00:56:07.610Z,2.01
2023-01-08T00:57:09.591Z,2.01
2023-01-08T00:58:12.605Z,2.01
2023-01-08T00:59:14.875Z,2.00
2023-01-08T01:00:17.162Z,2.00
2023-01-08T01:01:21.801Z,1.98
2023-01-08T01:02:24.081Z,1.97
2023-01-08T01:03:26.664Z,1.95
2023-01-08T01:04:28.919Z,1.95
2023-01-08T01:05:30.923Z,1.94
2023-01-08T01:06:33.121Z,1.93
2023-01-08T01:07:35.733Z,1.93
2023-01-08T01:08:38.133Z,1.92
2023-01-08T01:09:40.762Z,1.91
2023-01-08T01:10:42.805Z,1.92
2023-01-08T01:11:44.689Z,1.92
2023-01-08T01:12:46.852Z,1.93
2023-01-08T01:13:49.869Z,1.92
2023-01-08T01:14:52.796Z,1.93
2023-01-08T01:15:59.511Z,1.91
2023-01-08T01:17:01.336Z,1.90
2023-01-08T01:18:03.426Z,1.89
2023-01-08T01:19:05.385Z,1.87
2023-01-08T01:20:10.505Z,1.84
2023-01-08T01:21:26.648Z,1.83
2023-01-08T01:22:28.890Z,1.80
2023-01-08T01:23:30.956Z,1.80
2023-01-08T01:24:33.824Z,1.80
2023-01-08T01:25:39.031Z,1.80
2023-01-08T01:26:41.781Z,1.79
2023-01-08T01:27:43.968Z,1.79
2023-01-08T01:28:54.417Z,1.80
2023-01-08T01:29:56.420Z,1.79
2023-01-08T01:30:58.782Z,1.76
2023-01-08T01:32:03.956Z,1.75
2023-01-08T01:33:05.931Z,1.74
2023-01-08T01:34:07.950Z,1.73
2023-01-08T01:35:10.072Z,1.74
2023-01-08T01:36:14.172Z,1.74
2023-01-08T01:37:17.130Z,1.72
2023-01-08T01:38:19.208Z,1.73
2023-01-08T01:39:21.888Z,1.72
2023-01-08T01:40:23.877Z,1.72
2023-01-08T01:41:38.299Z,1.71
2023-01-08T01:42:40.439Z,1.70
2023-01-08T01:43:44.710Z,1.69
2023-01-08T01:44:47.059Z,1.68
2023-01-08T01:45:49.216Z,1.67
2023-01-08T01:46:51.396Z,1.67
2023-01-08T01:48:04.012Z,1.67
2023-01-08T01:49:22.732Z,1.67
2023-01-08T01:50:40.135Z,1.67
2023-01-08T01:51:51.708Z,1.69
2023-01-08T01:53:02.968Z,1.70
2023-01-08T01:54:11.196Z,1.72
2023-01-08T01:55:14.355Z,1.72
2023-01-08T01:56:16.797Z,1.71
2023-01-08T01:57:22.483Z,1.69
2023-01-08T01:58:28.344Z,1.68
2023-01-08T01:59:31.251Z,1.69
2023-01-08T02:00:35.515Z,1.68
2023-01-08T02:01:38.806Z,1.69
2023-01-08T02:02:40.960Z,1.71
2023-01-08T02:03:43.116Z,1.72
2023-01-08T02:04:45.187Z,1.72
2023-01-08T02:05:58.521Z,1.73
2023-01-08T02:07:14.804Z,1.73
2023-01-08T02:08:44.685Z,1.74
2023-01-08T02:09:54.515Z,1.76
2023-01-08T02:11:10.969Z,1.77
2023-01-08T02:12:25.277Z,1.75
2023-01-08T02:13:31.905Z,1.75
2023-01-08T02:14:47.477Z,1.75
2023-01-08T02:15:56.674Z,1.76
2023-01-08T02:17:06.920Z,1.76
2023-01-08T02:18:38.124Z,1.76
2023-01-08T02:19:40.144Z,1.76
2023-01-08T02:20:57.667Z,1.77
2023-01-08T02:22:41.275Z,1.79
2023-01-08T02:24:20.627Z,1.81
2023-01-08T02:25:34.047Z,1.81
2023-01-08T02:26:37.829Z,1.79
2023-01-08T02:27:45.701Z,1.77
2023-01-08T02:28:56.687Z,1.76
2023-01-08T02:29:59.618Z,1.75
2023-01-08T02:31:02.977Z,1.74
2023-01-08T02:32:05.853Z,1.71
2023-01-08T02:33:07.757Z,1.70
2023-01-08T02:34:11.829Z,1.69
2023-01-08T02:35:14.009Z,1.68
2023-01-08T02:36:30.835Z,1.67
2023-01-08T02:37:33.833Z,1.66
2023-01-08T02:38:41.636Z,1.66
2023-01-08T02:40:16.867Z,1.64
2023-01-08T02:41:29.154Z,1.61
2023-01-08T02:42:38.539Z,1.59
2023-01-08T02:43:52.606Z,1.57
2023-01-08T02:44:57.502Z,1.55
2023-01-08T02:46:02.659Z,1.54
2023-01-08T02:47:10.986Z,1.53
2023-01-08T02:48:16.227Z,1.55
2023-01-08T02:49:23.969Z,1.55
2023-01-08T02:50:35.913Z,1.54
2023-01-08T02:51:49.223Z,1.54
2023-01-08T02:53:09.708Z,1.53
2023-01-08T02:54:19.585Z,1.52
2023-01-08T02:55:26.214Z,1.51
2023-01-08T02:56:37.420Z,1.51
2023-01-08T02:57:40.081Z,1.52
2023-01-08T02:58:46.980Z,1.52
2023-01-08T02:59:51.575Z,1.54
2023-01-08T03:00:55.020Z,1.54
2023-01-08T03:01:57.905Z,1.55
2023-01-08T03:03:14.104Z,1.56
2023-01-08T03:04:20.450Z,1.58
2023-01-08T03:05:28.540Z,1.60
2023-01-08T03:06:32.170Z,1.63
2023-01-08T03:07:35.725Z,1.63
2023-01-08T03:08:46.478Z,1.63
2023-01-08T03:09:48.891Z,1.63
2023-01-08T03:11:04.295Z,1.63
2023-01-08T03:12:18.646Z,1.64
2023-01-08T03:13:45.923Z,1.65
2023-01-08T03:15:01.763Z,1.66
2023-01-08T03:16:11.722Z,1.68
2023-01-08T03:17:29.787Z,1.70
2023-01-08T03:18:39.859Z,1.70
2023-01-08T03:19:52.719Z,1.71
2023-01-08T03:20:55.675Z,1.72
2023-01-08T03:22:01.080Z,1.72
2023-01-08T03:23:09.244Z,1.72
2023-01-08T03:24:15.052Z,1.71
2023-01-08T03:25:22.184Z,1.70
2023-01-08T03:26:27.494Z,1.70
2023-01-08T03:27:38.198Z,1.71
2023-01-08T03:28:50.821Z,1.71
2023-01-08T03:29:57.864Z,1.74
2023-01-08T03:31:02.981Z,1.76
2023-01-08T03:32:14.062Z,1.76
2023-01-08T03:33:20.224Z,1.77
2023-01-08T03:34:27.014Z,1.77
2023-01-08T03:35:32.565Z,1.76
2023-01-08T03:36:38.662Z,1.77
2023-01-08T03:37:46.285Z,1.77
2023-01-08T03:38:59.522Z,1.78
2023-01-08T03:40:07.280Z,1.78
2023-01-08T03:41:18.661Z,1.79
2023-01-08T03:42:22.723Z,1.78
2023-01-08T03:43:25.689Z,1.78
2023-01-08T03:44:28.204Z,1.78
2023-01-08T03:45:33.101Z,1.77
2023-01-08T03:46:44.583Z,1.77
2023-01-08T03:47:48.284Z,1.77
2023-01-08T03:48:51.850Z,1.77
2023-01-08T03:49:58.076Z,1.76
2023-01-08T03:51:00.301Z,1.77
2023-01-08T03:52:02.452Z,1.76
2023-01-08T03:53:04.557Z,1.75
2023-01-08T03:54:13.694Z,1.76
2023-01-08T03:55:15.571Z,1.77
2023-01-08T03:56:17.583Z,1.77
2023-01-08T03:57:20.203Z,1.78
2023-01-08T03:58:22.113Z,1.80
2023-01-08T03:59:24.394Z,1.82
2023-01-08T04:00:26.943Z,1.83
2023-01-08T04:01:29.120Z,1.84
2023-01-08T04:02:31.380Z,1.86
2023-01-08T04:03:33.670Z,1.87
2023-01-08T04:04:36.258Z,1.88
2023-01-08T04:05:38.473Z,1.90
2023-01-08T04:06:41.130Z,1.91
2023-01-08T04:07:43.045Z,1.91
2023-01-08T04:08:47.839Z,1.91
2023-01-08T04:09:49.952Z,1.91
2023-01-08T04:10:52.124Z,1.90
2023-01-08T04:11:54.425Z,1.92
2023-01-08T04:12:56.437Z,1.92
2023-01-08T04:13:58.524Z,1.94
2023-01-08T04:15:00.982Z,1.95
2023-01-08T04:16:02.970Z,1.96
2023-01-08T04:17:05.073Z,1.95
2023-01-08T04:18:06.827Z,1.96
2023-01-08T04:19:11.816Z,1.96
2023-01-08T04:20:13.768Z,1.96
2023-01-08T04:21:15.722Z,1.95
2023-01-08T04:22:17.515Z,1.95
2023-01-08T04:23:19.675Z,1.96
2023-01-08T04:24:21.509Z,1.97
2023-01-08T04:25:23.449Z,1.98
2023-01-08T04:26:25.283Z,2.00
2023-01-08T04:27:27.436Z,2.01
2023-01-08T04:28:29.408Z,2.01
2023-01-08T04:29:31.390Z,2.03
2023-01-08T04:30:33.429Z,2.03
2023-01-08T04:31:35.496Z,2.03
2023-01-08T04:32:37.507Z,2.04
2023-01-08T04:33:39.645Z,2.04
2023-01-08T04:34:41.481Z,2.05
2023-01-08T04:35:43.453Z,2.06
2023-01-08T04:36:45.819Z,2.07
2023-01-08T04:37:47.975Z,2.08
2023-01-08T04:38:49.816Z,2.07
2023-01-08T04:39:51.790Z,2.08
2023-01-08T04:40:58.529Z,2.09
2023-01-08T04:42:00.908Z,2.10
2023-01-08T04:43:02.847Z,2.10
2023-01-08T04:44:05.279Z,2.09
2023-01-08T04:45:08.508Z,2.09
2023-01-08T04:46:11.361Z,2.07
2023-01-08T04:47:13.327Z,2.08
2023-01-08T04:48:15.130Z,2.08
2023-01-08T04:49:17.032Z,2.09
2023-01-08T04:50:19.259Z,2.10
2023-01-08T04:51:22.316Z,2.09
2023-01-08T04:52:24.349Z,2.09
2023-01-08T04:53:26.998Z,2.09
2023-01-08T04:54:28.859Z,2.12
2023-01-08T04:55:30.768Z,2.12
2023-01-08T04:56:32.764Z,2.13
2023-01-08T04:57:34.626Z,2.13
2023-01-08T04:58:38.347Z,2.14
2023-01-08T04:59:40.325Z,2.12
2023-01-08T05:00:42.221Z,2.12
2023-01-08T05:01:44.379Z,2.13
2023-01-08T05:02:47.129Z,2.13
2023-01-08T05:03:54.511Z,2.13
2023-01-08T05:04:56.533Z,2.14
2023-01-08T05:06:00.762Z,2.15
2023-01-08T05:07:04.412Z,2.16
2023-01-08T05:08:06.298Z,2.17
2023-01-08T05:09:08.337Z,2.18
2023-01-08T05:10:10.623Z,2.20
2023-01-08T05:11:12.725Z,2.21
2023-01-08T05:12:14.832Z,2.21
2023-01-08T05:13:16.959Z,2.21
2023-01-08T05:14:18.916Z,2.21
2023-01-08T05:15:21.028Z,2.21
2023-01-08T05:16:23.844Z,2.20
2023-01-08T05:17:26.136Z,2.20
2023-01-08T05:18:29.405Z,2.20
2023-01-08T05:19:31.375Z,2.21
2023-01-08T05:20:33.446Z,2.22
2023-01-08T05:21:35.879Z,2.22
2023-01-08T05:22:37.758Z,2.24
2023-01-08T05:23:40.200Z,2.26
2023-01-08T05:24:42.281Z,2.27
2023-01-08T05:25:44.248Z,2.29
2023-01-08T05:26:46.279Z,2.30
2023-01-08T05:27:48.440Z,2.30
2023-01-08T05:28:50.393Z,2.30
2023-01-08T05:29:52.317Z,2.30
2023-01-08T05:30:54.772Z,2.30
2023-01-08T05:31:56.808Z,2.29
2023-01-08T05:32:58.890Z,2.28
2023-01-08T05:34:01.458Z,2.28
2023-01-08T05:35:03.692Z,2.26
2023-01-08T05:36:11.122Z,2.27
2023-01-08T05:37:13.060Z,2.29
2023-01-08T05:38:15.390Z,2.30
2023-01-08T05:39:17.711Z,2.30
2023-01-08T05:40:20.358Z,2.30
2023-01-08T05:41:22.489Z,2.32
2023-01-08T05:42:24.490Z,2.32
2023-01-08T05:43:27.103Z,2.32
2023-01-08T05:44:29.352Z,2.31
2023-01-08T05:45:32.643Z,2.32
2023-01-08T05:46:34.863Z,2.32
2023-01-08T05:47:37.210Z,2.32
2023-01-08T05:48:39.882Z,2.32
2023-01-08T05:49:42.038Z,2.32
2023-01-08T05:50:44.009Z,2.32
2023-01-08T05:51:46.232Z,2.34
2023-01-08T05:52:48.145Z,2.34
2023-01-08T05:53:50.369Z,2.34
2023-01-08T05:54:52.567Z,2.34
2023-01-08T05:55:59.940Z,2.34
2023-01-08T05:57:01.823Z,2.34
2023-01-08T05:58:06.024Z,2.32
2023-01-08T05:59:08.035Z,2.31
2023-01-08T06:00:11.567Z,2.30
2023-01-08T06:01:18.074Z,2.28
2023-01-08T06:02:20.375Z,2.26
2023-01-08T06:03:23.295Z,2.25
2023-01-08T06:04:25.775Z,2.25
2023-01-08T06:05:28.788Z,2.25
2023-01-08T06:06:30.605Z,2.27
2023-01-08T06:07:32.497Z,2.28
2023-01-08T06:08:35.424Z,2.28
2023-01-08T06:09:37.512Z,2.27
2023-01-08T06:10:39.507Z,2.26
2023-01-08T06:11:41.407Z,2.25
2023-01-08T06:12:43.470Z,2.24
2023-01-08T06:13:45.391Z,2.23
2023-01-08T06:14:47.577Z,2.23
2023-01-08T06:15:49.534Z,2.22
2023-01-08T06:16:51.613Z,2.22
2023-01-08T06:17:53.522Z,2.20
2023-01-08T06:18:55.509Z,2.19
2023-01-08T06:19:57.854Z,2.18
2023-01-08T06:20:59.875Z,2.18
2023-01-08T06:22:01.754Z,2.19
2023-01-08T06:23:03.724Z,2.21
2023-01-08T06:24:06.067Z,2.21
2023-01-08T06:25:08.597Z,2.21
2023-01-08T06:26:10.856Z,2.19
2023-01-08T06:27:12.718Z,2.18
2023-01-08T06:28:14.508Z,2.16
2023-01-08T06:29:16.457Z,2.17
2023-01-08T06:30:18.805Z,2.17
2023-01-08T06:31:21.161Z,2.17
2023-01-08T06:32:23.042Z,2.17
2023-01-08T06:33:25.360Z,2.18
2023-01-08T06:34:27.252Z,2.19
2023-01-08T06:35:29.376Z,2.20
2023-01-08T06:36:31.275Z,2.21
2023-01-08T06:37:33.085Z,2.21
2023-01-08T06:38:35.922Z,2.20
2023-01-08T06:39:37.841Z,2.18
2023-01-08T06:40:39.774Z,2.16
2023-01-08T06:41:43.675Z,2.15
2023-01-08T06:42:46.450Z,2.16
2023-01-08T06:43:48.287Z,2.17
2023-01-08T06:44:50.563Z,2.18
2023-01-08T06:45:55.115Z,2.17
2023-01-08T06:46:57.119Z,2.17
2023-01-08T06:48:03.971Z,2.18
2023-01-08T06:49:08.237Z,2.20
2023-01-08T06:50:10.400Z,2.21
2023-01-08T06:51:12.601Z,2.22
2023-01-08T06:52:14.553Z,2.22
2023-01-08T06:53:17.072Z,2.23
2023-01-08T06:54:19.258Z,2.24
2023-01-08T06:55:23.290Z,2.24
2023-01-08T06:56:25.472Z,2.23
2023-01-08T06:57:27.379Z,2.24
2023-01-08T06:58:30.338Z,2.24
2023-01-08T06:59:32.268Z,2.24
2023-01-08T07:00:34.201Z,2.25
2023-01-08T07:01:36.771Z,2.24
2023-01-08T07:02:39.382Z,2.23
2023-01-08T07:03:42.085Z,2.22
2023-01-08T07:04:44.893Z,2.22
2023-01-08T07:05:47.100Z,2.21
2023-01-08T07:06:49.054Z,2.21
2023-01-08T07:07:51.719Z,2.21
2023-01-08T07:08:53.580Z,2.19
2023-01-08T07:09:55.445Z,2.18
2023-01-08T07:10:57.608Z,2.19
2023-01-08T07:11:59.381Z,2.19
2023-01-08T07:13:01.230Z,2.20
2023-01-08T07:14:03.121Z,2.21
2023-01-08T07:15:05.612Z,2.22
2023-01-08T07:16:09.827Z,2.23
2023-01-08T07:17:11.767Z,2.25
2023-01-08T07:18:13.717Z,2.26
2023-01-08T07:19:15.736Z,2.25
2023-01-08T07:20:17.713Z,2.25
2023-01-08T07:21:21.142Z,2.25
2023-01-08T07:22:24.297Z,2.26
2023-01-08T07:23:26.271Z,2.25
2023-01-08T07:24:28.564Z,2.25
2023-01-08T07:25:31.011Z,2.25
2023-01-08T07:26:33.575Z,2.26
2023-01-08T07:27:35.834Z,2.25
2023-01-08T07:28:37.678Z,2.26
2023-01-08T07:29:39.553Z,2.26
2023-01-08T07:30:41.624Z,2.26
2023-01-08T07:31:44.186Z,2.28
2023-01-08T07:32:46.089Z,2.28
2023-01-08T07:33:48.034Z,2.28
2023-01-08T07:34:49.956Z,2.26
2023-01-08T07:35:56.124Z,2.27
2023-01-08T07:36:58.085Z,2.26
2023-01-08T07:37:59.925Z,2.25
2023-01-08T07:39:02.018Z,2.24
2023-01-08T07:40:04.508Z,2.25
2023-01-08T07:41:06.488Z,2.24
2023-01-08T07:42:08.711Z,2.24
2023-01-08T07:43:12.674Z,2.24
2023-01-08T07:44:14.516Z,2.24
2023-01-08T07:45:16.505Z,2.25
2023-01-08T07:46:19.072Z,2.25
2023-01-08T07:47:20.967Z,2.25
2023-01-08T07:48:23.211Z,2.25
2023-01-08T07:49:25.716Z,2.25
2023-01-08T07:50:28.127Z,2.24
2023-01-08T07:51:30.048Z,2.24
2023-01-08T07:52:31.954Z,2.24
2023-01-08T07:53:34.973Z,2.24
2023-01-08T07:54:36.859Z,2.26
2023-01-08T07:55:38.791Z,2.25
2023-01-08T07:56:40.695Z,2.26
2023-01-08T07:57:42.581Z,2.26
2023-01-08T07:58:44.881Z,2.27
2023-01-08T07:59:46.935Z,2.29
2023-01-08T08:00:48.736Z,2.32
2023-01-08T08:01:50.723Z,2.34
2023-01-08T08:02:53.124Z,2.35
2023-01-08T08:03:55.331Z,2.34
2023-01-08T08:04:57.338Z,2.34
2023-01-08T08:06:01.486Z,2.34
2023-01-08T08:07:03.617Z,2.34
2023-01-08T08:08:10.668Z,2.33
2023-01-08T08:09:12.717Z,2.33
2023-01-08T08:10:14.609Z,2.32
2023-01-08T08:11:16.937Z,2.33
2023-01-08T08:12:19.242Z,2.35
2023-01-08T08:13:21.272Z,2.35
2023-01-08T08:14:23.704Z,2.38
2023-01-08T08:15:25.610Z,2.39
2023-01-08T08:16:27.540Z,2.39
2023-01-08T08:17:29.569Z,2.42
2023-01-08T08:18:31.669Z,2.43
2023-01-08T08:19:33.642Z,2.43
2023-01-08T08:20:37.109Z,2.43
2023-01-08T08:21:39.336Z,2.44
2023-01-08T08:22:41.624Z,2.44
2023-01-08T08:23:43.611Z,2.45
2023-01-08T08:24:45.652Z,2.45
2023-01-08T08:25:47.733Z,2.45
2023-01-08T08:26:51.619Z,2.44
2023-01-08T08:27:58.527Z,2.45
2023-01-08T08:29:00.480Z,2.46
2023-01-08T08:30:02.603Z,2.46
2023-01-08T08:31:04.628Z,2.46
2023-01-08T08:32:06.766Z,2.46
2023-01-08T08:33:09.033Z,2.45
2023-01-08T08:34:10.963Z,2.46
2023-01-08T08:35:12.806Z,2.47
2023-01-08T08:36:15.204Z,2.47
2023-01-08T08:37:17.751Z,2.49
2023-01-08T08:38:20.413Z,2.49
2023-01-08T08:39:23.801Z,2.48
2023-01-08T08:40:27.185Z,2.48
2023-01-08T08:41:29.530Z,2.49
2023-01-08T08:42:31.700Z,2.50
2023-01-08T08:43:33.686Z,2.50
2023-01-08T08:44:35.521Z,2.51
2023-01-08T08:45:38.204Z,2.51
2023-01-08T08:46:40.317Z,2.51
2023-01-08T08:47:42.567Z,2.50
2023-01-08T08:48:46.170Z,2.49
2023-01-08T08:49:48.047Z,2.47
2023-01-08T08:50:50.658Z,2.46
2023-01-08T08:51:53.501Z,2.45
2023-01-08T08:53:00.638Z,2.46
2023-01-08T08:54:03.169Z,2.47
2023-01-08T08:55:06.983Z,2.46
2023-01-08T08:56:09.106Z,2.47
2023-01-08T08:57:12.052Z,2.48
2023-01-08T08:58:14.625Z,2.48
2023-01-08T08:59:16.552Z,2.47
2023-01-08T09:00:18.983Z,2.48
2023-01-08T09:01:21.185Z,2.48
2023-01-08T09:02:23.426Z,2.48
2023-01-08T09:03:25.708Z,2.49
2023-01-08T09:04:33.665Z,2.50
2023-01-08T09:05:37.064Z,2.51
2023-01-08T09:06:38.987Z,2.52
2023-01-08T09:07:40.800Z,2.53
2023-01-08T09:08:43.736Z,2.55
2023-01-08T09:09:45.608Z,2.56
2023-01-08T09:10:47.747Z,2.58
2023-01-08T09:11:50.258Z,2.61
2023-01-08T09:12:53.896Z,2.62
2023-01-08T09:13:55.825Z,2.62
2023-01-08T09:14:57.933Z,2.63
2023-01-08T09:16:01.024Z,2.62
2023-01-08T09:17:02.859Z,2.61
2023-01-08T09:18:05.404Z,2.60
2023-01-08T09:19:07.664Z,2.61
2023-01-08T09:20:10.221Z,2.62
2023-01-08T09:21:12.135Z,2.62
2023-01-08T09:22:13.971Z,2.63
2023-01-08T09:23:15.912Z,2.63
2023-01-08T09:24:18.043Z,2.64
2023-01-08T09:25:20.644Z,2.64
2023-01-08T09:26:22.457Z,2.65
2023-01-08T09:27:24.638Z,2.66
2023-01-08T09:28:26.534Z,2.66
2023-01-08T09:29:28.508Z,2.66
2023-01-08T09:30:30.994Z,2.65
2023-01-08T09:31:34.455Z,2.66
2023-01-08T09:32:37.131Z,2.67
2023-01-08T09:33:39.489Z,2.67
2023-01-08T09:34:41.353Z,2.65
2023-01-08T09:35:44.209Z,2.66
2023-01-08T09:36:46.033Z,2.68
2023-01-08T09:37:51.594Z,2.69
2023-01-08T09:38:53.437Z,2.70
2023-01-08T09:40:02.201Z,2.71
2023-01-08T09:41:17.493Z,2.71
2023-01-08T09:42:24.165Z,2.72
2023-01-08T09:43:31.014Z,2.72
2023-01-08T09:44:40.882Z,2.70
2023-01-08T09:45:49.418Z,2.69
2023-01-08T09:46:55.772Z,2.68
2023-01-08T09:48:07.320Z,2.69
2023-01-08T09:49:21.495Z,2.69
2023-01-08T09:50:29.319Z,2.69
2023-01-08T09:51:35.720Z,2.69
2023-01-08T09:52:39.089Z,2.70
2023-01-08T09:53:43.783Z,2.71
2023-01-08T09:54:45.713Z,2.71
2023-01-08T09:56:10.147Z,2.70
2023-01-08T09:57:19.554Z,2.72
2023-01-08T09:58:24.263Z,2.71
2023-01-08T09:59:26.941Z,2.70
2023-01-08T10:00:33.962Z,2.69
2023-01-08T10:01:41.061Z,2.70
2023-01-08T10:02:44.812Z,2.70
2023-01-08T10:04:00.645Z,2.70
2023-01-08T10:05:04.008Z,2.69
2023-01-08T10:06:14.804Z,2.70
2023-01-08T10:07:25.928Z,2.72
2023-01-08T10:08:27.774Z,2.75
2023-01-08T10:09:32.551Z,2.75
2023-01-08T10:10:37.434Z,2.76
2023-01-08T10:11:44.843Z,2.77
2023-01-08T10:12:49.456Z,2.78
2023-01-08T10:13:57.289Z,2.79
2023-01-08T10:15:12.003Z,2.82
2023-01-08T10:16:27.534Z,2.84
2023-01-08T10:17:54.864Z,2.87
2023-01-08T10:18:58.394Z,2.89
2023-01-08T10:20:00.324Z,2.91
2023-01-08T10:21:02.720Z,2.94
2023-01-08T10:22:15.187Z,2.95
2023-01-08T10:23:21.236Z,2.94
2023-01-08T10:24:35.239Z,2.95
2023-01-08T10:25:48.769Z,2.95
2023-01-08T10:26:50.956Z,2.95
2023-01-08T10:28:02.005Z,2.94
2023-01-08T10:29:14.758Z,2.96
2023-01-08T10:30:42.855Z,2.97
2023-01-08T10:31:58.654Z,3.00
2023-01-08T10:33:14.806Z,3.01
2023-01-08T10:35:06.915Z,3.01
2023-01-08T10:36:14.281Z,2.99
2023-01-08T10:37:22.425Z,2.96
2023-01-08T10:38:32.902Z,2.97
2023-01-08T10:39:36.777Z,2.97
2023-01-08T10:40:47.071Z,2.97
2023-01-08T10:41:50.613Z,2.95
2023-01-08T10:42:56.675Z,2.93
2023-01-08T10:44:03.389Z,2.93
2023-01-08T10:45:21.895Z,2.91
2023-01-08T10:46:29.211Z,2.90
2023-01-08T10:47:36.784Z,2.90
2023-01-08T10:48:53.593Z,2.91
2023-01-08T10:49:58.519Z,2.92
2023-01-08T10:51:14.171Z,2.92
2023-01-08T10:52:36.743Z,2.94
2023-01-08T10:53:41.460Z,2.97
2023-01-08T10:54:43.409Z,2.98
2023-01-08T10:55:45.234Z,2.99
2023-01-08T10:56:47.151Z,3.03
2023-01-08T10:58:02.341Z,3.06
2023-01-08T10:59:04.161Z,3.10
2023-01-08T11:00:08.381Z,3.14
2023-01-08T11:01:16.573Z,3.17
2023-01-08T11:02:40.370Z,3.21
2023-01-08T11:03:43.139Z,3.27
2023-01-08T11:04:51.637Z,3.29
2023-01-08T11:05:53.540Z,3.32
2023-01-08T11:06:59.973Z,3.33
2023-01-08T11:08:07.250Z,3.32
2023-01-08T11:09:34.064Z,3.31
2023-01-08T11:10:37.821Z,3.30
2023-01-08T11:11:39.604Z,3.30
2023-01-08T11:12:42.169Z,3.31
2023-01-08T11:14:16.137Z,3.31
2023-01-08T11:15:18.531Z,3.31
2023-01-08T11:16:20.516Z,3.32
2023-01-08T11:17:27.490Z,3.33
2023-01-08T11:18:30.166Z,3.33
2023-01-08T11:19:34.456Z,3.34
2023-01-08T11:20:38.681Z,3.35
2023-01-08T11:21:40.616Z,3.34
2023-01-08T11:22:42.460Z,3.33
2023-01-08T11:23:44.924Z,3.30
2023-01-08T11:24:49.699Z,3.29
2023-01-08T11:26:21.790Z,3.30
2023-01-08T11:27:37.173Z,3.30
2023-01-08T11:29:06.114Z,3.30
2023-01-08T11:30:15.612Z,3.29
2023-01-08T11:31:52.886Z,3.28
2023-01-08T11:33:16.388Z,3.31
2023-01-08T11:34:26.541Z,3.36
2023-01-08T11:35:36.226Z,3.37
2023-01-08T11:36:59.257Z,3.37
2023-01-08T11:38:03.308Z,3.35
2023-01-08T11:39:08.956Z,3.35
2023-01-08T11:40:16.875Z,3.35
2023-01-08T11:42:03.540Z,3.36
2023-01-08T11:43:17.283Z,3.37
2023-01-08T11:44:48.654Z,3.39
2023-01-08T11:46:28.678Z,3.42
2023-01-08T11:47:46.065Z,3.44
2023-01-08T11:49:03.377Z,3.47
2023-01-08T11:50:28.821Z,3.50
2023-01-08T11:51:30.728Z,3.51
2023-01-08T11:53:10.454Z,3.52
2023-01-08T11:54:37.910Z,3.53
2023-01-08T11:55:47.408Z,3.55
2023-01-08T11:57:18.957Z,3.56
2023-01-08T11:58:45.637Z,3.57
2023-01-08T12:00:11.472Z,3.58
2023-01-08T12:01:53.879Z,3.58
2023-01-08T12:03:01.484Z,3.60
2023-01-08T12:04:34.301Z,3.61
2023-01-08T12:05:47.040Z,3.63
2023-01-08T12:07:14.889Z,3.64
2023-01-08T12:08:45.073Z,3.65
2023-01-08T12:10:01.626Z,3.65
2023-01-08T12:11:11.155Z,3.66
2023-01-08T12:12:49.829Z,3.69
2023-01-08T12:14:10.329Z,3.70
2023-01-08T12:15:41.219Z,3.71
2023-01-08T12:17:12.968Z,3.71
2023-01-08T12:18:24.513Z,3.70
2023-01-08T12:20:03.793Z,3.70
2023-01-08T12:21:43.934Z,3.70
2023-01-08T12:23:11.448Z,3.70
2023-01-08T12:24:55.367Z,3.68
2023-01-08T12:26:10.148Z,3.66
2023-01-08T12:28:00.480Z,3.65
2023-01-08T12:29:25.447Z,3.61
2023-01-08T12:30:52.968Z,3.59
2023-01-08T12:32:12.838Z,3.58
2023-01-08T12:33:58.545Z,3.55
2023-01-08T12:35:19.953Z,3.51
2023-01-08T12:36:41.799Z,3.50
2023-01-08T12:37:54.807Z,3.46
2023-01-08T12:39:05.139Z,3.46
2023-01-08T12:40:12.883Z,3.46
2023-01-08T12:41:19.574Z,3.45
2023-01-08T12:42:28.326Z,3.46
2023-01-08T12:43:43.087Z,3.44
2023-01-08T12:44:47.794Z,3.42
2023-01-08T12:45:56.961Z,3.41
2023-01-08T12:47:04.400Z,3.40
2023-01-08T12:48:20.697Z,3.40
2023-01-08T12:49:35.535Z,3.40
2023-01-08T12:50:44.052Z,3.40
2023-01-08T12:51:51.930Z,3.41
2023-01-08T12:53:14.265Z,3.42
2023-01-08T12:54:49.288Z,3.40
2023-01-08T12:56:13.330Z,3.40
2023-01-08T12:57:41.560Z,3.38
2023-01-08T12:58:46.532Z,3.38
2023-01-08T13:00:08.247Z,3.37
2023-01-08T13:01:47.140Z,3.36
2023-01-08T13:02:59.481Z,3.35
2023-01-08T13:04:05.001Z,3.35
2023-01-08T13:05:31.334Z,3.33
2023-01-08T13:06:33.622Z,3.33
2023-01-08T13:07:49.308Z,3.34
2023-01-08T13:08:55.698Z,3.36
2023-01-08T13:10:03.012Z,3.38
2023-01-08T13:11:06.957Z,3.40
2023-01-08T13:12:15.898Z,3.40
2023-01-08T13:13:34.373Z,3.40
2023-01-08T13:14:49.615Z,3.42
2023-01-08T13:15:51.449Z,3.42
2023-01-08T13:17:16.881Z,3.42
2023-01-08T13:18:21.898Z,3.43
2023-01-08T13:19:29.098Z,3.43
2023-01-08T13:20:32.620Z,3.44
2023-01-08T13:21:38.292Z,3.46
2023-01-08T13:22:41.931Z,3.50
2023-01-08T13:23:44.430Z,3.54
2023-01-08T13:24:46.223Z,3.57
2023-01-08T13:25:57.518Z,3.60
2023-01-08T13:27:28.685Z,3.63
2023-01-08T13:28:45.029Z,3.63
2023-01-08T13:29:49.795Z,3.62
2023-01-08T13:30:55.544Z,3.63
2023-01-08T13:31:57.402Z,3.62
2023-01-08T13:32:59.733Z,3.62
2023-01-08T13:34:01.643Z,3.62
2023-01-08T13:35:25.756Z,3.61
2023-01-08T13:36:29.652Z,3.61
2023-01-08T13:37:31.423Z,3.61
2023-01-08T13:38:33.247Z,3.62
2023-01-08T13:39:39.202Z,3.62
2023-01-08T13:40:44.232Z,3.61
2023-01-08T13:42:04.519Z,3.58
2023-01-08T13:43:12.841Z,3.56
2023-01-08T13:44:29.077Z,3.54
2023-01-08T13:45:32.867Z,3.51
2023-01-08T13:46:38.964Z,3.49
2023-01-08T13:47:46.543Z,3.47
2023-01-08T13:49:08.321Z,3.46
2023-01-08T13:50:21.188Z,3.46
2023-01-08T13:51:38.588Z,3.49
2023-01-08T13:52:45.443Z,3.50
2023-01-08T13:53:47.340Z,3.50
2023-01-08T13:54:49.804Z,3.51
2023-01-08T13:56:00.589Z,3.50
2023-01-08T13:57:07.166Z,3.50
2023-01-08T13:58:19.574Z,3.49
2023-01-08T13:59:39.313Z,3.48
2023-01-08T14:00:41.069Z,3.48
2023-01-08T14:01:52.947Z,3.47
2023-01-08T14:02:55.521Z,3.46
2023-01-08T14:03:58.843Z,3.45
2023-01-08T14:05:03.348Z,3.45
2023-01-08T14:06:20.440Z,3.44
2023-01-08T14:07:24.092Z,3.44
2023-01-08T14:08:27.524Z,3.43
2023-01-08T14:09:29.806Z,3.43
2023-01-08T14:10:33.153Z,3.42
2023-01-08T14:11:46.593Z,3.39
2023-01-08T14:12:50.014Z,3.39
2023-01-08T14:13:52.510Z,3.38
2023-01-08T14:14:59.935Z,3.37
2023-01-08T14:16:05.926Z,3.36
2023-01-08T14:17:16.862Z,3.35
2023-01-08T14:18:19.812Z,3.35
2023-01-08T14:19:24.861Z,3.34
2023-01-08T14:20:40.516Z,3.34
2023-01-08T14:21:51.550Z,3.33
2023-01-08T14:22:53.480Z,3.33
2023-01-08T14:23:55.588Z,3.33
2023-01-08T14:25:02.758Z,3.31
2023-01-08T14:26:08.698Z,3.29
2023-01-08T14:27:24.656Z,3.29
2023-01-08T14:28:26.618Z,3.28
2023-01-08T14:29:32.889Z,3.28
2023-01-08T14:30:35.936Z,3.28
2023-01-08T14:31:38.127Z,3.28
2023-01-08T14:32:44.243Z,3.29
2023-01-08T14:33:50.023Z,3.29
2023-01-08T14:34:55.976Z,3.30
2023-01-08T14:36:01.474Z,3.29
2023-01-08T14:37:05.228Z,3.28
2023-01-08T14:38:14.216Z,3.26
2023-01-08T14:39:25.577Z,3.24
2023-01-08T14:40:34.983Z,3.23
2023-01-08T14:42:00.449Z,3.21
2023-01-08T14:43:09.769Z,3.19
2023-01-08T14:44:17.380Z,3.18
2023-01-08T14:45:31.768Z,3.15
2023-01-08T14:46:33.711Z,3.14
2023-01-08T14:47:49.354Z,3.13